sensor_id;sensor_type;location;lat;lon;timestamp;pressure;altitude;pressure_sealevel;temperature;humidity
54808;BME280;40708;50.364;7.550;2022-09-27T00:01:24;98580.72;;;10.90;100.00
54808;BME280;40708;50.364;7.550;2022-09-27T00:03:52;98585.16;;;10.89;100.00
54808;BME280;40708;50.364;7.550;2022-09-27T00:06:23;98587.78;;;10.89;100.00
54808;BME280;40708;50.364;7.550;2022-09-27T00:08:48;98587.88;;;10.86;100.00
54808;BME280;40708;50.364;7.550;2022-09-27T00:11:28;98590.63;;;10.83;100.00
54808;BME280;40708;50.364;7.550;2022-09-27T00:13:55;98587.09;;;10.83;100.00
54808;BME280;40708;50.364;7.550;2022-09-27T00:16:22;98594.25;;;10.81;100.00
54808;BME280;40708;50.364;7.550;2022-09-27T00:18:48;98591.75;;;10.76;100.00
54808;BME280;40708;50.364;7.550;2022-09-27T00:21:13;98596.00;;;10.82;100.00
54808;BME280;40708;50.364;7.550;2022-09-27T00:23:39;98598.75;;;10.77;100.00
54808;BME280;40708;50.364;7.550;2022-09-27T00:26:06;98601.28;;;10.82;100.00
54808;BME280;40708;50.364;7.550;2022-09-27T00:28:33;98596.91;;;10.79;100.00
54808;BME280;40708;50.364;7.550;2022-09-27T00:30:59;98601.41;;;10.77;100.00
54808;BME280;40708;50.364;7.550;2022-09-27T00:33:25;98608.41;;;10.80;100.00
54808;BME280;40708;50.364;7.550;2022-09-27T00:35:50;98610.16;;;10.81;100.00
54808;BME280;40708;50.364;7.550;2022-09-27T00:38:16;98599.47;;;10.82;100.00
54808;BME280;40708;50.364;7.550;2022-09-27T00:40:41;98594.19;;;10.82;100.00
54808;BME280;40708;50.364;7.550;2022-09-27T00:43:19;98595.13;;;10.81;100.00
54808;BME280;40708;50.364;7.550;2022-09-27T00:45:49;98594.19;;;10.82;100.00
54808;BME280;40708;50.364;7.550;2022-09-27T00:48:17;98597.78;;;10.81;100.00
54808;BME280;40708;50.364;7.550;2022-09-27T00:50:48;98603.88;;;10.83;100.00
54808;BME280;40708;50.364;7.550;2022-09-27T00:53:18;98599.63;;;10.77;100.00
54808;BME280;40708;50.364;7.550;2022-09-27T00:55:52;98607.59;;;10.77;100.00
54808;BME280;40708;50.364;7.550;2022-09-27T00:58:21;98605.09;;;10.71;100.00
54808;BME280;40708;50.364;7.550;2022-09-27T01:00:51;98605.19;;;10.68;100.00
54808;BME280;40708;50.364;7.550;2022-09-27T01:03:33;98605.41;;;10.62;100.00
54808;BME280;40708;50.364;7.550;2022-09-27T01:06:01;98611.59;;;10.61;100.00
54808;BME280;40708;50.364;7.550;2022-09-27T01:08:26;98613.38;;;10.61;100.00
54808;BME280;40708;50.364;7.550;2022-09-27T01:11:09;98611.75;;;10.57;100.00
54808;BME280;40708;50.364;7.550;2022-09-27T01:17:00;98627.69;;;10.55;100.00
54808;BME280;40708;50.364;7.550;2022-09-27T01:22:28;98620.84;;;10.47;100.00
54808;BME280;40708;50.364;7.550;2022-09-27T01:28:46;98616.00;;;10.32;100.00
54808;BME280;40708;50.364;7.550;2022-09-27T01:31:50;98617.16;;;10.22;100.00
54808;BME280;40708;50.364;7.550;2022-09-27T01:34:28;98626.97;;;10.16;100.00
54808;BME280;40708;50.364;7.550;2022-09-27T01:37:21;98629.72;;;10.12;100.00
54808;BME280;40708;50.364;7.550;2022-09-27T01:42:59;98626.47;;;10.02;100.00
54808;BME280;40708;50.364;7.550;2022-09-27T01:48:21;98617.75;;;9.97;100.00
54808;BME280;40708;50.364;7.550;2022-09-27T01:50:52;98613.47;;;9.93;100.00
54808;BME280;40708;50.364;7.550;2022-09-27T01:53:22;98618.69;;;9.95;100.00
54808;BME280;40708;50.364;7.550;2022-09-27T01:55:52;98631.94;;;9.95;100.00
54808;BME280;40708;50.364;7.550;2022-09-27T01:58:40;98632.91;;;9.92;100.00
54808;BME280;40708;50.364;7.550;2022-09-27T02:01:07;98632.00;;;9.93;100.00
54808;BME280;40708;50.364;7.550;2022-09-27T02:03:40;98635.59;;;9.91;100.00
54808;BME280;40708;50.364;7.550;2022-09-27T02:06:11;98642.66;;;9.90;100.00
54808;BME280;40708;50.364;7.550;2022-09-27T02:08:47;98641.69;;;9.94;100.00
54808;BME280;40708;50.364;7.550;2022-09-27T02:11:15;98633.91;;;9.88;100.00
54808;BME280;40708;50.364;7.550;2022-09-27T02:13:46;98637.44;;;9.87;100.00
54808;BME280;40708;50.364;7.550;2022-09-27T02:16:27;98638.25;;;9.89;100.00
54808;BME280;40708;50.364;7.550;2022-09-27T02:19:17;98642.78;;;9.86;100.00
54808;BME280;40708;50.364;7.550;2022-09-27T02:21:54;98650.00;;;9.81;100.00
54808;BME280;40708;50.364;7.550;2022-09-27T02:24:26;98649.19;;;9.77;100.00
54808;BME280;40708;50.364;7.550;2022-09-27T02:27:00;98655.44;;;9.75;100.00
54808;BME280;40708;50.364;7.550;2022-09-27T02:29:33;98663.38;;;9.75;100.00
54808;BME280;40708;50.364;7.550;2022-09-27T02:32:01;98671.44;;;9.70;100.00
54808;BME280;40708;50.364;7.550;2022-09-27T02:34:30;98676.81;;;9.67;100.00
54808;BME280;40708;50.364;7.550;2022-09-27T02:36:57;98679.41;;;9.69;100.00
54808;BME280;40708;50.364;7.550;2022-09-27T02:39:22;98675.84;;;9.70;100.00
54808;BME280;40708;50.364;7.550;2022-09-27T02:41:48;98675.84;;;9.70;100.00
54808;BME280;40708;50.364;7.550;2022-09-27T02:44:15;98674.09;;;9.70;100.00
54808;BME280;40708;50.364;7.550;2022-09-27T02:47:06;98678.50;;;9.70;100.00
54808;BME280;40708;50.364;7.550;2022-09-27T02:55:17;98689.03;;;9.71;100.00
54808;BME280;40708;50.364;7.550;2022-09-27T02:58:21;98678.47;;;9.71;100.00
54808;BME280;40708;50.364;7.550;2022-09-27T03:01:02;98681.03;;;9.74;100.00
54808;BME280;40708;50.364;7.550;2022-09-27T03:06:13;98683.69;;;9.74;100.00
54808;BME280;40708;50.364;7.550;2022-09-27T03:08:40;98688.94;;;9.76;100.00
54808;BME280;40708;50.364;7.550;2022-09-27T03:11:06;98679.19;;;9.78;100.00
54808;BME280;40708;50.364;7.550;2022-09-27T03:13:31;98675.63;;;9.79;100.00
54808;BME280;40708;50.364;7.550;2022-09-27T03:15:58;98683.63;;;9.76;100.00
54808;BME280;40708;50.364;7.550;2022-09-27T03:18:24;98681.84;;;9.76;100.00
54808;BME280;40708;50.364;7.550;2022-09-27T03:20:51;98691.56;;;9.76;100.00
54808;BME280;40708;50.364;7.550;2022-09-27T03:23:16;98693.44;;;9.72;100.00
54808;BME280;40708;50.364;7.550;2022-09-27T03:25:42;98686.38;;;9.73;100.00
54808;BME280;40708;50.364;7.550;2022-09-27T03:28:07;98689.88;;;9.73;100.00
54808;BME280;40708;50.364;7.550;2022-09-27T03:30:33;98694.28;;;9.74;100.00
54808;BME280;40708;50.364;7.550;2022-09-27T03:32:59;98704.78;;;9.77;100.00
54808;BME280;40708;50.364;7.550;2022-09-27T03:35:25;98703.03;;;9.76;100.00
54808;BME280;40708;50.364;7.550;2022-09-27T03:37:50;98703.03;;;9.76;100.00
54808;BME280;40708;50.364;7.550;2022-09-27T03:40:16;98700.47;;;9.73;100.00
54808;BME280;40708;50.364;7.550;2022-09-27T03:42:41;98699.72;;;9.68;100.00
54808;BME280;40708;50.364;7.550;2022-09-27T03:45:07;98708.53;;;9.69;100.00
54808;BME280;40708;50.364;7.550;2022-09-27T03:47:32;98709.59;;;9.62;100.00
54808;BME280;40708;50.364;7.550;2022-09-27T03:49:57;98707.03;;;9.57;100.00
54808;BME280;40708;50.364;7.550;2022-09-27T03:52:22;98707.97;;;9.54;100.00
54808;BME280;40708;50.364;7.550;2022-09-27T03:54:48;98708.84;;;9.55;100.00
54808;BME280;40708;50.364;7.550;2022-09-27T03:57:13;98709.78;;;9.52;100.00
54808;BME280;40708;50.364;7.550;2022-09-27T03:59:38;98715.91;;;9.54;100.00
54808;BME280;40708;50.364;7.550;2022-09-27T04:02:04;98713.19;;;9.57;100.00
54808;BME280;40708;50.364;7.550;2022-09-27T04:04:29;98713.19;;;9.57;100.00
54808;BME280;40708;50.364;7.550;2022-09-27T04:06:55;98706.13;;;9.58;100.00
54808;BME280;40708;50.364;7.550;2022-09-27T04:09:21;98717.59;;;9.58;100.00
54808;BME280;40708;50.364;7.550;2022-09-27T04:11:47;98710.44;;;9.62;100.00
54808;BME280;40708;50.364;7.550;2022-09-27T04:14:13;98708.72;;;9.61;100.00
54808;BME280;40708;50.364;7.550;2022-09-27T04:16:38;98704.25;;;9.63;100.00
54808;BME280;40708;50.364;7.550;2022-09-27T04:19:05;98713.88;;;9.66;100.00
54808;BME280;40708;50.364;7.550;2022-09-27T04:21:31;98720.88;;;9.68;100.00
54808;BME280;40708;50.364;7.550;2022-09-27T04:23:56;98715.66;;;9.67;100.00
54808;BME280;40708;50.364;7.550;2022-09-27T04:26:21;98729.69;;;9.70;100.00
54808;BME280;40708;50.364;7.550;2022-09-27T04:28:47;98727.06;;;9.69;100.00
54808;BME280;40708;50.364;7.550;2022-09-27T04:31:12;98728.84;;;9.68;100.00
54808;BME280;40708;50.364;7.550;2022-09-27T04:33:37;98726.16;;;9.70;100.00
54808;BME280;40708;50.364;7.550;2022-09-27T04:36:03;98733.31;;;9.66;100.00
54808;BME280;40708;50.364;7.550;2022-09-27T04:38:46;98734.09;;;9.70;100.00
54808;BME280;40708;50.364;7.550;2022-09-27T04:41:12;98731.41;;;9.71;100.00
54808;BME280;40708;50.364;7.550;2022-09-27T04:43:38;98735.81;;;9.72;100.00
54808;BME280;40708;50.364;7.550;2022-09-27T04:46:04;98738.34;;;9.77;100.00
54808;BME280;40708;50.364;7.550;2022-09-27T04:48:29;98736.56;;;9.77;100.00
54808;BME280;40708;50.364;7.550;2022-09-27T04:50:56;98743.50;;;9.83;100.00
54808;BME280;40708;50.364;7.550;2022-09-27T04:53:22;98743.56;;;9.80;100.00
54808;BME280;40708;50.364;7.550;2022-09-27T04:55:48;98737.41;;;9.79;100.00
54808;BME280;40708;50.364;7.550;2022-09-27T04:58:14;98753.28;;;9.79;100.00
54808;BME280;40708;50.364;7.550;2022-09-27T05:00:39;98736.56;;;9.77;100.00
54808;BME280;40708;50.364;7.550;2022-09-27T05:03:07;98741.81;;;9.80;100.00
54808;BME280;40708;50.364;7.550;2022-09-27T05:05:32;98747.13;;;9.79;100.00
54808;BME280;40708;50.364;7.550;2022-09-27T05:07:57;98746.09;;;9.84;100.00
54808;BME280;40708;50.364;7.550;2022-09-27T05:10:23;98747.94;;;9.82;100.00
54808;BME280;40708;50.364;7.550;2022-09-27T05:12:48;98747.13;;;9.79;100.00
54808;BME280;40708;50.364;7.550;2022-09-27T05:15:13;98751.53;;;9.80;100.00
54808;BME280;40708;50.364;7.550;2022-09-27T05:17:39;98750.78;;;9.73;100.00
54808;BME280;40708;50.364;7.550;2022-09-27T05:20:04;98758.69;;;9.75;100.00
54808;BME280;40708;50.364;7.550;2022-09-27T05:22:30;98764.88;;;9.75;100.00
54808;BME280;40708;50.364;7.550;2022-09-27T05:24:55;98770.13;;;9.77;100.00
54808;BME280;40708;50.364;7.550;2022-09-27T05:27:20;98771.88;;;9.78;100.00
54808;BME280;40708;50.364;7.550;2022-09-27T05:29:46;98773.59;;;9.79;100.00
54808;BME280;40708;50.364;7.550;2022-09-27T05:32:12;98773.66;;;9.76;100.00
54808;BME280;40708;50.364;7.550;2022-09-27T05:34:37;98779.81;;;9.78;100.00
54808;BME280;40708;50.364;7.550;2022-09-27T05:37:03;98778.00;;;9.80;100.00
54808;BME280;40708;50.364;7.550;2022-09-27T05:39:28;98780.69;;;9.78;100.00
54808;BME280;40708;50.364;7.550;2022-09-27T05:41:53;98774.59;;;9.75;100.00
54808;BME280;40708;50.364;7.550;2022-09-27T05:44:20;98780.72;;;9.77;100.00
54808;BME280;40708;50.364;7.550;2022-09-27T05:46:45;98777.25;;;9.73;100.00
54808;BME280;40708;50.364;7.550;2022-09-27T05:49:10;98783.38;;;9.77;100.00
54808;BME280;40708;50.364;7.550;2022-09-27T05:51:36;98790.50;;;9.73;100.00
54808;BME280;40708;50.364;7.550;2022-09-27T05:54:01;98788.78;;;9.72;100.00
54808;BME280;40708;50.364;7.550;2022-09-27T05:56:27;98795.88;;;9.70;100.00
54808;BME280;40708;50.364;7.550;2022-09-27T05:58:52;98788.66;;;9.78;100.00
54808;BME280;40708;50.364;7.550;2022-09-27T06:01:17;98797.50;;;9.76;100.00
54808;BME280;40708;50.364;7.550;2022-09-27T06:03:43;98800.09;;;9.79;100.00
54808;BME280;40708;50.364;7.550;2022-09-27T06:06:08;98806.25;;;9.79;100.00
54808;BME280;40708;50.364;7.550;2022-09-27T06:08:36;98807.19;;;9.77;100.00
54808;BME280;40708;50.364;7.550;2022-09-27T06:11:04;98807.25;;;9.75;100.00
54808;BME280;40708;50.364;7.550;2022-09-27T06:13:30;98807.25;;;9.74;100.00
54808;BME280;40708;50.364;7.550;2022-09-27T06:15:58;98810.97;;;9.67;100.00
54808;BME280;40708;50.364;7.550;2022-09-27T06:18:23;98808.50;;;9.59;100.00
54808;BME280;40708;50.364;7.550;2022-09-27T06:20:48;98807.59;;;9.58;100.00
54808;BME280;40708;50.364;7.550;2022-09-27T06:23:17;98807.56;;;9.60;100.00
54808;BME280;40708;50.364;7.550;2022-09-27T06:25:43;98811.03;;;9.64;100.00
54808;BME280;40708;50.364;7.550;2022-09-27T06:28:09;98803.97;;;9.64;100.00
54808;BME280;40708;50.364;7.550;2022-09-27T06:30:38;98811.69;;;9.73;100.00
54808;BME280;40708;50.364;7.550;2022-09-27T06:33:04;98809.72;;;9.83;100.00
54808;BME280;40708;50.364;7.550;2022-09-27T06:35:30;98805.81;;;9.97;100.00
54808;BME280;40708;50.364;7.550;2022-09-27T06:37:55;98809.09;;;10.08;100.00
54808;BME280;40708;50.364;7.550;2022-09-27T06:40:21;98808.81;;;10.22;100.00
54808;BME280;40708;50.364;7.550;2022-09-27T06:42:47;98808.19;;;10.48;100.00
54808;BME280;40708;50.364;7.550;2022-09-27T06:45:13;98804.09;;;10.68;100.00
54808;BME280;40708;50.364;7.550;2022-09-27T06:47:38;98806.16;;;10.91;100.00
54808;BME280;40708;50.364;7.550;2022-09-27T06:50:04;98799.97;;;10.91;100.00
54808;BME280;40708;50.364;7.550;2022-09-27T06:52:34;98803.50;;;10.91;100.00
54808;BME280;40708;50.364;7.550;2022-09-27T06:55:01;98810.56;;;10.92;100.00
54808;BME280;40708;50.364;7.550;2022-09-27T06:57:27;98814.53;;;11.08;100.00
54808;BME280;40708;50.364;7.550;2022-09-27T07:00:11;98812.72;;;11.09;100.00
54808;BME280;40708;50.364;7.550;2022-09-27T07:02:50;98814.91;;;11.25;100.00
54808;BME280;40708;50.364;7.550;2022-09-27T07:05:16;98820.19;;;11.27;100.00
54808;BME280;40708;50.364;7.550;2022-09-27T07:07:41;98812.97;;;11.92;100.00
54808;BME280;40708;50.364;7.550;2022-09-27T07:10:08;98804.06;;;12.21;100.00
54808;BME280;40708;50.364;7.550;2022-09-27T07:12:35;98803.25;;;12.97;100.00
54808;BME280;40708;50.364;7.550;2022-09-27T07:15:01;98793.66;;;13.18;100.00
54808;BME280;40708;50.364;7.550;2022-09-27T07:17:27;98792.56;;;13.24;100.00
54808;BME280;40708;50.364;7.550;2022-09-27T07:19:52;98792.63;;;13.45;100.00
54808;BME280;40708;50.364;7.550;2022-09-27T07:22:18;98793.19;;;13.55;100.00
54808;BME280;40708;50.364;7.550;2022-09-27T07:24:44;98801.31;;;13.27;100.00
54808;BME280;40708;50.364;7.550;2022-09-27T07:27:09;98807.72;;;13.22;100.00
54808;BME280;40708;50.364;7.550;2022-09-27T07:29:34;98804.19;;;12.70;100.00
54808;BME280;40708;50.364;7.550;2022-09-27T07:32:00;98809.63;;;12.67;100.00
54808;BME280;40708;50.364;7.550;2022-09-27T07:34:25;98813.06;;;12.71;100.00
54808;BME280;40708;50.364;7.550;2022-09-27T07:36:51;98811.09;;;12.76;100.00
54808;BME280;40708;50.364;7.550;2022-09-27T07:39:19;98815.69;;;12.97;100.00
54808;BME280;40708;50.364;7.550;2022-09-27T07:41:46;98830.53;;;13.04;100.00
54808;BME280;40708;50.364;7.550;2022-09-27T07:44:11;98822.47;;;12.81;100.00
54808;BME280;40708;50.364;7.550;2022-09-27T07:46:38;98820.53;;;13.12;100.00
54808;BME280;40708;50.364;7.550;2022-09-27T07:49:03;98817.16;;;13.55;100.00
54808;BME280;40708;50.364;7.550;2022-09-27T07:51:28;98815.66;;;13.48;100.00
54808;BME280;40708;50.364;7.550;2022-09-27T07:53:54;98817.47;;;13.23;100.00
54808;BME280;40708;50.364;7.550;2022-09-27T07:56:19;98827.94;;;13.27;100.00
54808;BME280;40708;50.364;7.550;2022-09-27T07:58:45;98823.84;;;12.92;100.00
54808;BME280;40708;50.364;7.550;2022-09-27T08:01:10;98831.81;;;12.92;100.00
54808;BME280;40708;50.364;7.550;2022-09-27T08:03:36;98829.91;;;13.47;100.00
54808;BME280;40708;50.364;7.550;2022-09-27T08:06:02;98830.66;;;12.99;100.00
54808;BME280;40708;50.364;7.550;2022-09-27T08:08:28;98834.66;;;13.37;100.00
54808;BME280;40708;50.364;7.550;2022-09-27T08:10:53;98830.00;;;13.67;100.00
54808;BME280;40708;50.364;7.550;2022-09-27T08:13:18;98828.41;;;14.53;100.00
54808;BME280;40708;50.364;7.550;2022-09-27T08:15:44;98815.97;;;14.73;100.00
54808;BME280;40708;50.364;7.550;2022-09-27T08:18:09;98819.84;;;15.08;100.00
54808;BME280;40708;50.364;7.550;2022-09-27T08:20:35;98825.88;;;14.50;100.00
54808;BME280;40708;50.364;7.550;2022-09-27T08:23:00;98826.06;;;14.67;100.00
54808;BME280;40708;50.364;7.550;2022-09-27T08:25:28;98832.41;;;14.19;100.00
54808;BME280;40708;50.364;7.550;2022-09-27T08:27:59;98826.44;;;14.58;100.00
54808;BME280;40708;50.364;7.550;2022-09-27T08:30:25;98832.69;;;14.35;100.00
54808;BME280;40708;50.364;7.550;2022-09-27T08:32:57;98829.44;;;14.27;100.00
54808;BME280;40708;50.364;7.550;2022-09-27T08:35:23;98844.00;;;13.97;100.00
54808;BME280;40708;50.364;7.550;2022-09-27T08:37:56;98833.72;;;14.09;100.00
54808;BME280;40708;50.364;7.550;2022-09-27T08:40:30;98835.34;;;13.67;100.00
54808;BME280;40708;50.364;7.550;2022-09-27T08:43:12;98842.34;;;13.46;100.00
54808;BME280;40708;50.364;7.550;2022-09-27T08:48:27;98858.81;;;13.08;100.00
54808;BME280;40708;50.364;7.550;2022-09-27T08:50:54;98850.72;;;13.11;100.00
54808;BME280;40708;50.364;7.550;2022-09-27T08:53:51;98854.72;;;12.96;100.00
54808;BME280;40708;50.364;7.550;2022-09-27T08:56:18;98856.66;;;13.19;100.00
54808;BME280;40708;50.364;7.550;2022-09-27T08:58:57;98843.97;;;13.50;100.00
54808;BME280;40708;50.364;7.550;2022-09-27T09:01:25;98848.38;;;13.27;100.00
54808;BME280;40708;50.364;7.550;2022-09-27T09:03:54;98851.16;;;13.24;100.00
54808;BME280;40708;50.364;7.550;2022-09-27T09:06:26;98855.97;;;13.37;100.00
54808;BME280;40708;50.364;7.550;2022-09-27T09:09:34;98859.09;;;13.50;100.00
54808;BME280;40708;50.364;7.550;2022-09-27T09:18:26;98840.69;;;13.90;100.00
54808;BME280;40708;50.364;7.550;2022-09-27T09:21:06;98838.50;;;14.00;100.00
54808;BME280;40708;50.364;7.550;2022-09-27T09:23:47;98841.38;;;13.72;100.00
54808;BME280;40708;50.364;7.550;2022-09-27T09:31:49;98839.31;;;13.80;100.00
54808;BME280;40708;50.364;7.550;2022-09-27T09:34:29;98841.94;;;13.57;100.00
54808;BME280;40708;50.364;7.550;2022-09-27T09:37:02;98847.72;;;13.69;100.00
54808;BME280;40708;50.364;7.550;2022-09-27T09:39:51;98843.00;;;13.76;100.00
54808;BME280;40708;50.364;7.550;2022-09-27T09:42:37;98840.31;;;13.76;100.00
54808;BME280;40708;50.364;7.550;2022-09-27T09:45:05;98833.75;;;14.08;100.00
54808;BME280;40708;50.364;7.550;2022-09-27T09:50:38;98828.59;;;14.26;100.00
54808;BME280;40708;50.364;7.550;2022-09-27T09:53:33;98824.06;;;14.05;100.00
54808;BME280;40708;50.364;7.550;2022-09-27T09:56:04;98832.03;;;14.07;100.00
54808;BME280;40708;50.364;7.550;2022-09-27T09:58:36;98822.66;;;13.97;100.00
54808;BME280;40708;50.364;7.550;2022-09-27T10:01:13;98826.09;;;13.77;100.00
54808;BME280;40708;50.364;7.550;2022-09-27T10:03:41;98830.09;;;13.89;100.00
54808;BME280;40708;50.364;7.550;2022-09-27T10:06:09;98814.66;;;13.73;100.00
54808;BME280;40708;50.364;7.550;2022-09-27T10:08:34;98804.41;;;13.63;100.00
54808;BME280;40708;50.364;7.550;2022-09-27T10:11:00;98807.28;;;14.03;100.00
54808;BME280;40708;50.364;7.550;2022-09-27T10:13:25;98817.03;;;14.04;100.00
54808;BME280;40708;50.364;7.550;2022-09-27T10:16:11;98819.88;;;14.45;100.00
54808;BME280;40708;50.364;7.550;2022-09-27T10:18:39;98805.28;;;14.53;100.00
54808;BME280;40708;50.364;7.550;2022-09-27T10:21:10;98804.03;;;14.82;100.00
54808;BME280;40708;50.364;7.550;2022-09-27T10:24:16;98797.16;;;15.17;100.00
54808;BME280;40708;50.364;7.550;2022-09-27T10:26:45;98789.97;;;15.19;100.00
54808;BME280;40708;50.364;7.550;2022-09-27T10:29:33;98783.94;;;15.14;100.00
54808;BME280;40708;50.364;7.550;2022-09-27T10:32:01;98781.56;;;15.08;100.00
54808;BME280;40708;50.364;7.550;2022-09-27T10:34:34;98783.56;;;14.82;100.00
54808;BME280;40708;50.364;7.550;2022-09-27T10:37:21;98790.28;;;14.51;100.00
54808;BME280;40708;50.364;7.550;2022-09-27T10:39:49;98785.34;;;14.18;100.00
54808;BME280;40708;50.364;7.550;2022-09-27T10:42:32;98790.50;;;14.45;100.00
54808;BME280;40708;50.364;7.550;2022-09-27T10:45:28;98790.28;;;14.27;100.00
54808;BME280;40708;50.364;7.550;2022-09-27T10:47:54;98802.31;;;14.39;100.00
54808;BME280;40708;50.364;7.550;2022-09-27T10:50:23;98792.84;;;14.52;100.00
54808;BME280;40708;50.364;7.550;2022-09-27T10:53:00;98783.56;;;14.82;100.00
54808;BME280;40708;50.364;7.550;2022-09-27T10:55:27;98785.19;;;14.65;100.00
54808;BME280;40708;50.364;7.550;2022-09-27T10:57:56;98784.28;;;15.06;100.00
54808;BME280;40708;50.364;7.550;2022-09-27T11:00:32;98780.44;;;14.93;100.00
54808;BME280;40708;50.364;7.550;2022-09-27T11:03:04;98785.56;;;14.98;100.00
54808;BME280;40708;50.364;7.550;2022-09-27T11:05:36;98792.59;;;14.58;100.00
54808;BME280;40708;50.364;7.550;2022-09-27T11:10:43;98803.47;;;14.75;100.00
54808;BME280;40708;50.364;7.550;2022-09-27T11:13:16;98799.75;;;14.36;100.00
54808;BME280;40708;50.364;7.550;2022-09-27T11:18:45;98801.38;;;14.40;100.00
54808;BME280;40708;50.364;7.550;2022-09-27T11:21:26;98808.19;;;13.57;100.00
54808;BME280;40708;50.364;7.550;2022-09-27T11:24:24;98820.06;;;13.24;100.00
54808;BME280;40708;50.364;7.550;2022-09-27T11:30:01;98815.44;;;13.29;100.00
54808;BME280;40708;50.364;7.550;2022-09-27T11:32:53;98810.97;;;13.30;100.00
54808;BME280;40708;50.364;7.550;2022-09-27T11:35:52;98801.16;;;13.55;100.00
54808;BME280;40708;50.364;7.550;2022-09-27T11:41:55;98791.03;;;13.64;100.00
54808;BME280;40708;50.364;7.550;2022-09-27T11:44:48;98786.44;;;13.68;100.00
54808;BME280;40708;50.364;7.550;2022-09-27T11:47:39;98791.19;;;13.60;100.00
54808;BME280;40708;50.364;7.550;2022-09-27T11:59:38;98776.72;;;14.55;100.00
54808;BME280;40708;50.364;7.550;2022-09-27T12:02:33;98768.94;;;14.91;100.00
54808;BME280;40708;50.364;7.550;2022-09-27T12:08:07;98761.22;;;15.05;100.00
54808;BME280;40708;50.364;7.550;2022-09-27T12:10:39;98751.56;;;15.21;100.00
54808;BME280;40708;50.364;7.550;2022-09-27T12:13:09;98759.63;;;14.81;100.00
54808;BME280;40708;50.364;7.550;2022-09-27T12:15:41;98751.19;;;14.90;100.00
54808;BME280;40708;50.364;7.550;2022-09-27T12:18:24;98754.44;;;14.76;100.00
54808;BME280;40708;50.364;7.550;2022-09-27T12:20:52;98756.59;;;14.68;100.00
54808;BME280;40708;50.364;7.550;2022-09-27T12:23:40;98757.91;;;14.78;100.00
54808;BME280;40708;50.364;7.550;2022-09-27T12:26:24;98758.53;;;14.85;100.00
54808;BME280;40708;50.364;7.550;2022-09-27T12:29:26;98752.31;;;14.84;100.00
54808;BME280;40708;50.364;7.550;2022-09-27T12:32:17;98751.84;;;14.95;100.00
54808;BME280;40708;50.364;7.550;2022-09-27T12:34:53;98758.22;;;14.72;100.00
54808;BME280;40708;50.364;7.550;2022-09-27T12:37:24;98756.84;;;14.62;100.00
54808;BME280;40708;50.364;7.550;2022-09-27T12:40:24;98759.38;;;14.45;100.00
54808;BME280;40708;50.364;7.550;2022-09-27T12:42:56;98748.13;;;14.99;100.00
54808;BME280;40708;50.364;7.550;2022-09-27T12:48:33;98743.91;;;14.94;100.00
54808;BME280;40708;50.364;7.550;2022-09-27T12:51:08;98742.38;;;15.08;100.00
54808;BME280;40708;50.364;7.550;2022-09-27T13:02:08;98746.84;;;14.87;100.00
54808;BME280;40708;50.364;7.550;2022-09-27T13:04:59;98748.78;;;14.64;100.00
54808;BME280;40708;50.364;7.550;2022-09-27T13:12:58;98743.31;;;14.67;100.00
54808;BME280;40708;50.364;7.550;2022-09-27T13:15:29;98744.38;;;14.63;100.00
54808;BME280;40708;50.364;7.550;2022-09-27T13:17:57;98738.44;;;14.56;100.00
54808;BME280;40708;50.364;7.550;2022-09-27T13:22:55;98729.69;;;14.53;100.00
54808;BME280;40708;50.364;7.550;2022-09-27T13:30:52;98736.91;;;14.71;100.00
54808;BME280;40708;50.364;7.550;2022-09-27T13:38:51;98747.25;;;14.78;100.00
54808;BME280;40708;50.364;7.550;2022-09-27T13:41:19;98739.19;;;14.80;100.00
54808;BME280;40708;50.364;7.550;2022-09-27T13:46:24;98734.41;;;15.27;100.00
54808;BME280;40708;50.364;7.550;2022-09-27T13:48:54;98727.69;;;15.37;100.00
54808;BME280;40708;50.364;7.550;2022-09-27T13:54:49;98729.84;;;15.29;100.00
54808;BME280;40708;50.364;7.550;2022-09-27T13:57:40;98729.47;;;15.18;100.00
54808;BME280;40708;50.364;7.550;2022-09-27T14:00:23;98731.69;;;15.47;100.00
54808;BME280;40708;50.364;7.550;2022-09-27T14:03:05;98733.09;;;14.97;100.00
54808;BME280;40708;50.364;7.550;2022-09-27T14:05:36;98726.53;;;15.04;100.00
54808;BME280;40708;50.364;7.550;2022-09-27T14:08:03;98729.22;;;15.04;100.00
54808;BME280;40708;50.364;7.550;2022-09-27T14:10:30;98727.06;;;14.73;100.00
54808;BME280;40708;50.364;7.550;2022-09-27T14:12:58;98729.63;;;14.74;100.00
54808;BME280;40708;50.364;7.550;2022-09-27T14:15:27;98728.91;;;14.51;100.00
54808;BME280;40708;50.364;7.550;2022-09-27T14:17:54;98723.88;;;14.43;100.00
54808;BME280;40708;50.364;7.550;2022-09-27T14:20:40;98730.03;;;14.45;100.00
54808;BME280;40708;50.364;7.550;2022-09-27T14:23:21;98718.97;;;14.32;100.00
54808;BME280;40708;50.364;7.550;2022-09-27T14:25:49;98720.34;;;14.43;100.00
54808;BME280;40708;50.364;7.550;2022-09-27T14:28:26;98715.59;;;14.49;100.00
54808;BME280;40708;50.364;7.550;2022-09-27T14:31:14;98717.94;;;14.37;100.00
54808;BME280;40708;50.364;7.550;2022-09-27T14:33:42;98714.41;;;14.36;100.00
54808;BME280;40708;50.364;7.550;2022-09-27T14:36:33;98728.41;;;13.98;100.00
54808;BME280;40708;50.364;7.550;2022-09-27T14:39:30;98723.25;;;14.15;100.00
54808;BME280;40708;50.364;7.550;2022-09-27T14:41:59;98728.72;;;14.12;100.00
54808;BME280;40708;50.364;7.550;2022-09-27T14:44:25;98735.28;;;14.03;100.00
54808;BME280;40708;50.364;7.550;2022-09-27T14:49:33;98733.06;;;13.93;100.00
54808;BME280;40708;50.364;7.550;2022-09-27T14:51:58;98747.03;;;13.99;100.00
54808;BME280;40708;50.364;7.550;2022-09-27T14:54:26;98744.03;;;13.85;100.00
54808;BME280;40708;50.364;7.550;2022-09-27T14:56:53;98747.94;;;13.98;100.00
54808;BME280;40708;50.364;7.550;2022-09-27T15:01:55;98756.78;;;13.77;100.00